Time;durP1;ratioP1;P1;durP2;ratioP2;P2;SDS_P1;SDS_P2;PMS_P1;PMS_P2;Temp;Humidity;BMP_temperature;BMP_pressure;BME280_temperature;BME280_humidity;BME280_pressure;Samples;Min_cycle;Max_cycle;Signal;HPM_P1;HPM_P2
2023/07/14 00:01:43;;;;;;;;;;;17.20;99.90;;;;;;5029850;28;20321;-71
2023/07/14 00:04:12;;;;;;;;;;;17.20;99.90;;;;;;5030281;28;20016;-71
2023/07/14 00:06:39;;;;;;;;;;;17.20;99.90;;;;;;5029558;28;19931;-71
2023/07/14 00:09:13;;;;;;;;;;;17.20;99.90;;;;;;5030263;28;20044;-71
2023/07/14 00:11:38;;;;;;;;;;;17.20;99.90;;;;;;5029802;28;20444;-71
2023/07/14 00:14:04;;;;;;;;;;;17.20;99.90;;;;;;5030318;28;19925;-70
2023/07/14 00:16:29;;;;;;;;;;;17.10;99.90;;;;;;5029714;28;19925;-70
2023/07/14 00:18:55;;;;;;;;;;;17.10;99.90;;;;;;5027980;28;20288;-71
2023/07/14 00:21:24;;;;;;;;;;;17.10;99.90;;;;;;5029372;28;20485;-70
2023/07/14 00:23:54;;;;;;;;;;;17.10;99.90;;;;;;5030073;28;19972;-70
2023/07/14 00:26:20;;;;;;;;;;;17.10;99.90;;;;;;5029547;28;20307;-71
2023/07/14 00:28:48;;;;;;;;;;;17.10;99.90;;;;;;5029890;28;19925;-71
2023/07/14 00:31:15;;;;;;;;;;;17.00;99.90;;;;;;5029614;28;19924;-71
2023/07/14 00:33:41;;;;;;;;;;;17.00;99.90;;;;;;5027699;28;20529;-71
2023/07/14 00:36:08;;;;;;;;;;;16.90;99.90;;;;;;5030076;28;19933;-71
2023/07/14 00:38:34;;;;;;;;;;;16.80;99.90;;;;;;5029516;28;19931;-71
2023/07/14 00:41:00;;;;;;;;;;;16.80;99.90;;;;;;5030365;28;19925;-71
2023/07/14 00:43:25;;;;;;;;;;;16.80;99.90;;;;;;5029622;28;20028;-71
2023/07/14 00:45:52;;;;;;;;;;;16.70;99.90;;;;;;5029537;28;19987;-71
2023/07/14 00:48:21;;;;;;;;;;;16.70;99.90;;;;;;5029510;28;20354;-70
2023/07/14 00:50:50;;;;;;;;;;;16.60;99.90;;;;;;5018158;28;20036;-70
2023/07/14 00:53:20;;;;;;;;;;;16.60;99.90;;;;;;5029559;28;19925;-71
2023/07/14 00:56:06;;;;;;;;;;;16.50;99.90;;;;;;5029758;28;20016;-70
2023/07/14 00:58:32;;;;;;;;;;;16.40;99.90;;;;;;5005037;28;20341;-71
2023/07/14 01:01:21;;;;;;;;;;;16.40;99.90;;;;;;5020616;28;19929;-71
2023/07/14 01:03:47;;;;;;;;;;;16.30;99.90;;;;;;5018216;28;20529;-70
2023/07/14 01:06:16;;;;;;;;;;;16.30;99.90;;;;;;5029582;28;20375;-70
2023/07/14 01:08:59;;;;;;;;;;;16.30;99.90;;;;;;5030905;28;19933;-71
2023/07/14 01:11:32;;;;;;;;;;;16.30;99.90;;;;;;5033545;28;20493;-71
2023/07/14 01:14:00;;;;;;;;;;;16.30;99.90;;;;;;5016446;28;20450;-70
2023/07/14 01:16:28;;;;;;;;;;;16.30;99.90;;;;;;5033443;28;19936;-71
2023/07/14 01:18:54;;;;;;;;;;;16.30;99.90;;;;;;5033426;28;20022;-70
2023/07/14 01:21:22;;;;;;;;;;;16.30;99.90;;;;;;5032390;28;19925;-71
2023/07/14 01:24:01;;;;;;;;;;;16.30;99.90;;;;;;5033356;28;19964;-70
2023/07/14 01:26:29;;;;;;;;;;;16.30;99.90;;;;;;5021705;28;19925;-70
2023/07/14 01:28:54;;;;;;;;;;;16.30;99.90;;;;;;5032768;28;19933;-70
2023/07/14 01:31:21;;;;;;;;;;;16.30;99.90;;;;;;5032985;28;19925;-70
2023/07/14 01:33:47;;;;;;;;;;;16.30;99.90;;;;;;5033288;28;19936;-70
2023/07/14 01:36:12;;;;;;;;;;;16.30;99.90;;;;;;5033340;28;19925;-71
2023/07/14 01:38:38;;;;;;;;;;;16.30;99.90;;;;;;5032121;28;20016;-71
2023/07/14 01:41:05;;;;;;;;;;;16.30;99.90;;;;;;5033303;28;19925;-71
2023/07/14 01:43:31;;;;;;;;;;;16.30;99.90;;;;;;5031540;28;19929;-71
2023/07/14 01:46:01;;;;;;;;;;;16.30;99.90;;;;;;5016800;28;20023;-70
2023/07/14 01:48:29;;;;;;;;;;;16.30;99.90;;;;;;5031950;28;19947;-71
2023/07/14 01:50:59;;;;;;;;;;;16.40;99.90;;;;;;5027549;28;19929;-71
2023/07/14 01:53:28;;;;;;;;;;;16.40;1.00;;;;;;5027690;28;19932;-71
2023/07/14 01:55:56;;;;;;;;;;;16.40;1.00;;;;;;5032325;28;19968;-70
2023/07/14 01:58:23;;;;;;;;;;;16.50;99.90;;;;;;5032909;28;19931;-70
2023/07/14 02:00:49;;;;;;;;;;;16.50;1.00;;;;;;5013989;28;20454;-70
2023/07/14 02:03:27;;;;;;;;;;;16.50;99.90;;;;;;5032921;28;19926;-70
2023/07/14 02:05:53;;;;;;;;;;;16.50;99.90;;;;;;5032250;28;20352;-70
2023/07/14 02:08:22;;;;;;;;;;;16.40;99.90;;;;;;5029385;28;19928;-70
2023/07/14 02:10:48;;;;;;;;;;;16.30;99.90;;;;;;5032370;28;19930;-70
2023/07/14 02:13:13;;;;;;;;;;;16.20;99.90;;;;;;5032460;28;19960;-71
2023/07/14 02:15:39;;;;;;;;;;;16.20;99.90;;;;;;5032354;28;19925;-71
2023/07/14 02:18:04;;;;;;;;;;;16.10;99.90;;;;;;5032653;28;19960;-71
2023/07/14 02:20:35;;;;;;;;;;;16.10;99.90;;;;;;5032408;28;19929;-70
2023/07/14 02:23:02;;;;;;;;;;;16.10;1.00;;;;;;5032416;28;20409;-71
2023/07/14 02:25:30;;;;;;;;;;;16.00;1.00;;;;;;5032074;28;19951;-71
2023/07/14 02:27:56;;;;;;;;;;;16.00;1.00;;;;;;5014975;28;19932;-71
2023/07/14 02:30:22;;;;;;;;;;;15.90;1.00;;;;;;5023305;28;19925;-70
2023/07/14 02:33:14;;;;;;;;;;;15.80;1.00;;;;;;5011263;28;19926;-71
2023/07/14 02:35:46;;;;;;;;;;;15.80;1.00;;;;;;5011076;28;20330;-70
2023/07/14 02:38:16;;;;;;;;;;;15.70;1.00;;;;;;5029441;28;19976;-71
2023/07/14 02:40:45;;;;;;;;;;;15.70;1.00;;;;;;5031796;28;19929;-71
2023/07/14 02:43:11;;;;;;;;;;;15.60;1.00;;;;;;4994276;28;19976;-71
2023/07/14 02:45:44;;;;;;;;;;;15.60;1.00;;;;;;5010909;28;19925;-71
2023/07/14 02:48:16;;;;;;;;;;;15.60;1.00;;;;;;5011488;28;19929;-70
2023/07/14 02:50:42;;;;;;;;;;;15.50;1.00;;;;;;5005889;28;19930;-70
2023/07/14 02:53:07;;;;;;;;;;;15.50;1.00;;;;;;5019803;28;20036;-71
2023/07/14 02:55:33;;;;;;;;;;;15.50;1.00;;;;;;5029848;28;19925;-71
2023/07/14 02:57:58;;;;;;;;;;;15.50;1.00;;;;;;5014059;28;20433;-70
2023/07/14 03:00:24;;;;;;;;;;;15.50;1.00;;;;;;5012369;28;19925;-70
2023/07/14 03:02:49;;;;;;;;;;;15.50;1.00;;;;;;5030167;28;19948;-70
2023/07/14 03:05:17;;;;;;;;;;;15.50;1.00;;;;;;4996789;28;19925;-71
2023/07/14 03:07:42;;;;;;;;;;;15.50;1.00;;;;;;5029995;28;19937;-70
2023/07/14 03:10:08;;;;;;;;;;;15.40;1.00;;;;;;5016870;28;19925;-70
2023/07/14 03:12:34;;;;;;;;;;;15.40;1.00;;;;;;5017940;28;19932;-71
2023/07/14 03:14:59;;;;;;;;;;;15.40;1.00;;;;;;5009440;28;19932;-70
2023/07/14 03:17:25;;;;;;;;;;;15.40;1.00;;;;;;5011246;28;19926;-70
2023/07/14 03:19:50;;;;;;;;;;;15.40;1.00;;;;;;5009912;28;20138;-71
2023/07/14 03:22:16;;;;;;;;;;;15.40;1.00;;;;;;5026858;28;20041;-71
2023/07/14 03:24:41;;;;;;;;;;;15.50;1.00;;;;;;5009233;28;19930;-71
2023/07/14 03:27:07;;;;;;;;;;;15.50;1.00;;;;;;5010641;28;19940;-70
2023/07/14 03:29:32;;;;;;;;;;;15.50;1.00;;;;;;5013053;28;20026;-71
2023/07/14 03:31:58;;;;;;;;;;;15.50;1.00;;;;;;5029911;28;19932;-71
2023/07/14 03:34:23;;;;;;;;;;;15.50;1.00;;;;;;5030450;28;20346;-71
2023/07/14 03:36:49;;;;;;;;;;;15.40;1.00;;;;;;5014261;28;19929;-70
2023/07/14 03:39:21;;;;;;;;;;;15.40;1.00;;;;;;5029953;28;19991;-71
2023/07/14 03:41:47;;;;;;;;;;;15.40;1.00;;;;;;5029481;28;19925;-70
2023/07/14 03:44:13;;;;;;;;;;;15.40;1.00;;;;;;5030087;28;20290;-71
2023/07/14 03:46:38;;;;;;;;;;;15.40;1.00;;;;;;5025170;28;19932;-70
2023/07/14 03:49:03;;;;;;;;;;;15.40;1.00;;;;;;5029250;28;19928;-70
2023/07/14 03:51:30;;;;;;;;;;;15.30;1.00;;;;;;5029515;28;19929;-71
2023/07/14 03:53:56;;;;;;;;;;;15.30;1.00;;;;;;5031023;28;19992;-70
2023/07/14 03:56:21;;;;;;;;;;;15.30;1.00;;;;;;5030266;28;19964;-71
2023/07/14 03:58:47;;;;;;;;;;;15.30;1.00;;;;;;5030555;28;19929;-70
2023/07/14 04:01:14;;;;;;;;;;;15.30;1.00;;;;;;5025883;28;20502;-71
2023/07/14 04:03:39;;;;;;;;;;;15.20;1.00;;;;;;5030135;28;19925;-70
2023/07/14 04:06:05;;;;;;;;;;;15.30;1.00;;;;;;5030542;28;20299;-70
2023/07/14 04:08:37;;;;;;;;;;;15.30;1.00;;;;;;5011025;28;19929;-71
2023/07/14 04:11:03;;;;;;;;;;;15.30;1.00;;;;;;5030351;28;19925;-71
2023/07/14 04:13:30;;;;;;;;;;;15.30;1.00;;;;;;5030646;28;19932;-70
2023/07/14 04:15:56;;;;;;;;;;;15.30;1.00;;;;;;5025174;28;19932;-70
2023/07/14 04:18:22;;;;;;;;;;;15.30;1.00;;;;;;5030200;28;19929;-70
2023/07/14 04:20:47;;;;;;;;;;;15.30;1.00;;;;;;5009124;28;20651;-70
2023/07/14 04:23:13;;;;;;;;;;;15.40;1.00;;;;;;5030381;28;19925;-70
2023/07/14 04:25:39;;;;;;;;;;;15.40;1.00;;;;;;5030192;28;20394;-70
2023/07/14 04:28:04;;;;;;;;;;;15.40;1.00;;;;;;5029446;28;19999;-70
2023/07/14 04:30:31;;;;;;;;;;;15.40;1.00;;;;;;5028846;28;19932;-70
2023/07/14 04:32:57;;;;;;;;;;;15.50;1.00;;;;;;5015787;28;20591;-71
2023/07/14 04:35:23;;;;;;;;;;;15.50;1.00;;;;;;5028812;28;19939;-71
2023/07/14 04:37:49;;;;;;;;;;;15.50;1.00;;;;;;5011408;28;19929;-70
2023/07/14 04:40:14;;;;;;;;;;;15.50;1.00;;;;;;5028835;28;19968;-71
2023/07/14 04:42:40;;;;;;;;;;;15.50;1.00;;;;;;5028317;28;19925;-71
2023/07/14 04:45:06;;;;;;;;;;;15.60;1.00;;;;;;5028845;28;19925;-70
2023/07/14 04:47:31;;;;;;;;;;;15.60;1.00;;;;;;5028249;28;19935;-71
2023/07/14 04:49:57;;;;;;;;;;;15.60;1.00;;;;;;5028727;28;19925;-70
2023/07/14 04:52:22;;;;;;;;;;;15.60;1.00;;;;;;5028689;28;19952;-70
2023/07/14 04:54:48;;;;;;;;;;;15.70;1.00;;;;;;5028964;28;19959;-71
2023/07/14 04:57:14;;;;;;;;;;;15.70;1.00;;;;;;5028203;28;19925;-70
2023/07/14 04:59:40;;;;;;;;;;;15.70;1.00;;;;;;5028726;28;20361;-70
2023/07/14 05:02:07;;;;;;;;;;;15.70;1.00;;;;;;5028084;28;20019;-71
2023/07/14 05:04:32;;;;;;;;;;;15.70;1.00;;;;;;5028806;28;20024;-71
2023/07/14 05:06:58;;;;;;;;;;;15.80;1.00;;;;;;5027616;28;20023;-70
2023/07/14 05:09:24;;;;;;;;;;;15.80;1.00;;;;;;5028879;28;20382;-70
2023/07/14 05:11:49;;;;;;;;;;;15.80;1.00;;;;;;5028390;28;19929;-70
2023/07/14 05:14:15;;;;;;;;;;;15.90;1.00;;;;;;5028672;28;20341;-72
2023/07/14 05:16:40;;;;;;;;;;;15.90;1.00;;;;;;5028718;28;19924;-71
2023/07/14 05:19:06;;;;;;;;;;;16.00;1.00;;;;;;5029805;28;19925;-71
2023/07/14 05:21:31;;;;;;;;;;;16.00;1.00;;;;;;5029125;28;19984;-70
2023/07/14 05:23:57;;;;;;;;;;;16.10;1.00;;;;;;5029415;28;19926;-70
2023/07/14 05:26:22;;;;;;;;;;;16.20;1.00;;;;;;5029443;28;19948;-69
2023/07/14 05:28:48;;;;;;;;;;;16.20;1.00;;;;;;5029080;28;19980;-69
2023/07/14 05:31:13;;;;;;;;;;;16.20;1.00;;;;;;5029414;28;19980;-70
2023/07/14 05:33:39;;;;;;;;;;;16.20;1.00;;;;;;5027597;28;19929;-70
2023/07/14 05:36:05;;;;;;;;;;;16.30;1.00;;;;;;5026845;28;19968;-70
2023/07/14 05:38:30;;;;;;;;;;;16.40;1.00;;;;;;5028832;28;19925;-70
2023/07/14 05:40:56;;;;;;;;;;;16.40;1.00;;;;;;5010821;28;19934;-71
2023/07/14 05:43:23;;;;;;;;;;;16.40;1.00;;;;;;5029042;28;19926;-70
2023/07/14 05:45:48;;;;;;;;;;;16.50;1.00;;;;;;5029252;28;20352;-70
2023/07/14 05:48:17;;;;;;;;;;;16.50;1.00;;;;;;5028917;28;19925;-71
2023/07/14 05:50:44;;;;;;;;;;;16.50;1.00;;;;;;5028758;28;19932;-70
2023/07/14 05:53:09;;;;;;;;;;;16.60;1.00;;;;;;5029018;28;20390;-70
2023/07/14 05:55:35;;;;;;;;;;;16.70;1.00;;;;;;5031406;28;20000;-70
2023/07/14 05:58:00;;;;;;;;;;;16.70;1.00;;;;;;5033040;28;20106;-70
2023/07/14 06:00:26;;;;;;;;;;;16.80;1.00;;;;;;5032834;28;20398;-70
2023/07/14 06:02:51;;;;;;;;;;;16.80;1.00;;;;;;5033031;28;19936;-70
2023/07/14 06:05:19;;;;;;;;;;;16.90;1.00;;;;;;5032733;28;19978;-71
2023/07/14 06:07:45;;;;;;;;;;;17.00;1.00;;;;;;5032748;28;19929;-70
2023/07/14 06:10:11;;;;;;;;;;;17.10;1.00;;;;;;5032529;28;19932;-71
2023/07/14 06:12:37;;;;;;;;;;;17.20;1.00;;;;;;5032424;28;19960;-71
2023/07/14 06:15:03;;;;;;;;;;;17.20;1.00;;;;;;5031908;28;19972;-71
2023/07/14 06:17:28;;;;;;;;;;;17.30;1.00;;;;;;5032399;28;19936;-71
2023/07/14 06:19:54;;;;;;;;;;;17.30;1.00;;;;;;5029724;28;19925;-71
2023/07/14 06:22:20;;;;;;;;;;;17.40;1.00;;;;;;5029614;28;19932;-71
2023/07/14 06:24:48;;;;;;;;;;;17.40;1.00;;;;;;5031870;28;19925;-70
2023/07/14 06:27:13;;;;;;;;;;;17.50;1.00;;;;;;5031886;28;19933;-71
2023/07/14 06:29:39;;;;;;;;;;;17.60;1.00;;;;;;5031811;28;20003;-71
2023/07/14 06:32:05;;;;;;;;;;;17.70;1.00;;;;;;5013981;28;20020;-71
2023/07/14 06:34:31;;;;;;;;;;;17.70;1.00;;;;;;5031581;28;19967;-71
2023/07/14 06:36:57;;;;;;;;;;;17.80;1.00;;;;;;5016980;28;19991;-71
2023/07/14 06:39:22;;;;;;;;;;;17.80;1.00;;;;;;5032378;28;19933;-71
2023/07/14 06:41:48;;;;;;;;;;;17.90;1.00;;;;;;5032240;28;19935;-71
2023/07/14 06:44:14;;;;;;;;;;;17.90;1.00;;;;;;5028609;28;19948;-71
2023/07/14 06:46:39;;;;;;;;;;;18.00;1.00;;;;;;5031762;28;20015;-71
2023/07/14 06:49:05;;;;;;;;;;;18.10;1.00;;;;;;5032145;28;20381;-71
2023/07/14 06:51:30;;;;;;;;;;;18.20;1.00;;;;;;5032014;28;19952;-71
2023/07/14 06:53:56;;;;;;;;;;;18.30;99.90;;;;;;5031774;28;19925;-71
2023/07/14 06:56:22;;;;;;;;;;;18.30;99.90;;;;;;5031124;28;20383;-71
2023/07/14 06:58:47;;;;;;;;;;;18.30;99.90;;;;;;5031968;28;19929;-71
2023/07/14 07:01:13;;;;;;;;;;;18.40;99.90;;;;;;5031525;28;20302;-71
2023/07/14 07:03:39;;;;;;;;;;;18.40;99.90;;;;;;5031757;28;19925;-71
2023/07/14 07:06:04;;;;;;;;;;;18.40;99.90;;;;;;5008800;28;19978;-71
2023/07/14 07:08:30;;;;;;;;;;;18.50;99.90;;;;;;5031711;28;19925;-70
2023/07/14 07:10:55;;;;;;;;;;;18.50;99.90;;;;;;5031589;28;19987;-71
2023/07/14 07:13:21;;;;;;;;;;;18.60;99.90;;;;;;5031159;28;19925;-71
2023/07/14 07:15:46;;;;;;;;;;;18.70;99.90;;;;;;5031041;28;19926;-71
2023/07/14 07:18:12;;;;;;;;;;;18.70;99.90;;;;;;5031085;28;19925;-70
2023/07/14 07:20:40;;;;;;;;;;;18.80;99.90;;;;;;5031588;28;19968;-71
2023/07/14 07:23:06;;;;;;;;;;;18.80;99.90;;;;;;5031511;28;19925;-70
2023/07/14 07:25:31;;;;;;;;;;;18.80;99.90;;;;;;5044988;28;19925;-71
2023/07/14 07:27:57;;;;;;;;;;;18.90;99.90;;;;;;5030424;28;19929;-71
2023/07/14 07:30:23;;;;;;;;;;;19.00;99.90;;;;;;5031005;28;19952;-71
2023/07/14 07:32:49;;;;;;;;;;;19.10;99.90;;;;;;5031053;28;19961;-71
2023/07/14 07:35:15;;;;;;;;;;;19.10;99.90;;;;;;5030549;28;19925;-71
2023/07/14 07:37:40;;;;;;;;;;;19.20;99.90;;;;;;5044469;28;20016;-71
2023/07/14 07:40:09;;;;;;;;;;;19.20;99.90;;;;;;5030700;28;19972;-71
2023/07/14 07:42:35;;;;;;;;;;;19.30;92.30;;;;;;5030975;28;20375;-71
2023/07/14 07:45:01;;;;;;;;;;;19.40;99.90;;;;;;5030567;28;19951;-71
2023/07/14 07:47:26;;;;;;;;;;;19.40;16.80;;;;;;5030989;28;20302;-70
2023/07/14 07:49:52;;;;;;;;;;;19.50;20.40;;;;;;5030466;28;19929;-70
2023/07/14 07:52:18;;;;;;;;;;;19.60;1.00;;;;;;5030723;28;19929;-71
2023/07/14 07:54:43;;;;;;;;;;;19.70;1.00;;;;;;5030424;28;19971;-70
2023/07/14 07:57:09;;;;;;;;;;;19.80;1.00;;;;;;5030101;28;19928;-70
2023/07/14 07:59:35;;;;;;;;;;;19.80;1.00;;;;;;5030379;28;19925;-70
2023/07/14 08:02:00;;;;;;;;;;;19.80;99.90;;;;;;5030304;28;19925;-70
2023/07/14 08:04:26;;;;;;;;;;;19.90;1.00;;;;;;5030911;28;20334;-70
2023/07/14 08:06:52;;;;;;;;;;;19.90;1.00;;;;;;5030538;28;19929;-70
2023/07/14 08:09:17;;;;;;;;;;;20.00;99.90;;;;;;5022753;28;19925;-71
2023/07/14 08:11:43;;;;;;;;;;;20.00;1.00;;;;;;5030413;28;20036;-70
2023/07/14 08:14:15;;;;;;;;;;;20.00;1.00;;;;;;5030583;28;20354;-71
2023/07/14 08:16:40;;;;;;;;;;;20.10;49.90;;;;;;5029602;28;19932;-70
2023/07/14 08:19:06;;;;;;;;;;;20.20;99.90;;;;;;5029980;28;19925;-70
2023/07/14 08:21:31;;;;;;;;;;;20.20;1.00;;;;;;5029923;28;19929;-71
2023/07/14 08:23:58;;;;;;;;;;;20.30;1.00;;;;;;5030466;28;19932;-70
2023/07/14 08:26:24;;;;;;;;;;;20.30;99.90;;;;;;5027762;28;19975;-70
2023/07/14 08:28:49;;;;;;;;;;;20.40;99.90;;;;;;5029827;28;20844;-70
2023/07/14 08:31:15;;;;;;;;;;;20.40;99.90;;;;;;5029127;28;19968;-70
2023/07/14 08:33:44;;;;;;;;;;;20.40;1.00;;;;;;5029444;28;19944;-71
2023/07/14 08:36:11;;;;;;;;;;;20.50;1.00;;;;;;5029882;28;19925;-70
2023/07/14 08:38:38;;;;;;;;;;;20.50;99.90;;;;;;5025509;28;19971;-70
2023/07/14 08:41:14;;;;;;;;;;;20.60;99.90;;;;;;5026816;28;20268;-70
2023/07/14 08:43:43;;;;;;;;;;;20.70;73.40;;;;;;5029979;28;20016;-70
2023/07/14 08:46:08;;;;;;;;;;;20.90;1.00;;;;;;5009474;28;19925;-71
2023/07/14 08:48:38;;;;;;;;;;;21.00;95.70;;;;;;5025107;28;20408;-71
2023/07/14 08:51:15;;;;;;;;;;;21.20;1.00;;;;;;5007784;28;19925;-70
2023/07/14 08:53:44;;;;;;;;;;;21.30;99.90;;;;;;5029583;28;19932;-70
2023/07/14 08:56:11;;;;;;;;;;;21.30;99.90;;;;;;5029533;28;19935;-70
2023/07/14 08:58:39;;;;;;;;;;;21.30;1.00;;;;;;5029805;28;19969;-70
2023/07/14 09:01:16;;;;;;;;;;;21.50;99.90;;;;;;5021149;28;20243;-70
2023/07/14 09:03:43;;;;;;;;;;;21.50;99.90;;;;;;5029377;28;19929;-70
2023/07/14 09:06:18;;;;;;;;;;;21.40;99.90;;;;;;5029479;28;20008;-71
2023/07/14 09:08:44;;;;;;;;;;;21.40;99.90;;;;;;5023533;28;19933;-71
2023/07/14 09:11:28;;;;;;;;;;;21.30;99.90;;;;;;5008130;28;19932;-70
2023/07/14 09:14:02;;;;;;;;;;;21.40;25.50;;;;;;5027016;28;20298;-70
2023/07/14 09:16:29;;;;;;;;;;;21.40;1.00;;;;;;5027186;28;20147;-71
2023/07/14 09:19:05;;;;;;;;;;;21.50;1.00;;;;;;5029154;28;19936;-70
2023/07/14 09:21:36;;;;;;;;;;;21.70;1.00;;;;;;5026466;28;19980;-71
2023/07/14 09:24:41;;;;;;;;;;;21.90;1.00;;;;;;5016705;28;19929;-71
2023/07/14 09:27:11;;;;;;;;;;;21.90;99.90;;;;;;4953493;28;19933;-71
2023/07/14 09:29:40;;;;;;;;;;;22.00;99.90;;;;;;4950285;28;19994;-71
2023/07/14 09:32:14;;;;;;;;;;;22.10;99.90;;;;;;5002134;28;20288;-71
2023/07/14 09:34:42;;;;;;;;;;;22.30;99.90;;;;;;5032820;28;20382;-71
2023/07/14 09:37:11;;;;;;;;;;;22.60;99.90;;;;;;5033156;28;19926;-72
2023/07/14 09:39:40;;;;;;;;;;;22.80;99.90;;;;;;5032629;28;20306;-71
2023/07/14 09:42:29;;;;;;;;;;;23.00;25.60;;;;;;5033197;28;19932;-71
2023/07/14 09:45:00;;;;;;;;;;;23.30;1.00;;;;;;5032795;28;20682;-71
2023/07/14 09:47:26;;;;;;;;;;;23.60;1.00;;;;;;5032996;28;19932;-73
2023/07/14 09:49:57;;;;;;;;;;;23.80;1.00;;;;;;5027835;28;20298;-71
2023/07/14 09:52:23;;;;;;;;;;;24.20;99.90;;;;;;5032444;28;19952;-72
2023/07/14 09:54:51;;;;;;;;;;;24.40;99.90;;;;;;5032222;28;20334;-71
2023/07/14 09:57:18;;;;;;;;;;;24.60;99.90;;;;;;5031963;28;19929;-71
2023/07/14 09:59:52;;;;;;;;;;;24.60;99.90;;;;;;5031693;28;20051;-71
2023/07/14 10:02:19;;;;;;;;;;;24.60;99.90;;;;;;5027472;28;19925;-71
2023/07/14 10:04:47;;;;;;;;;;;24.80;99.90;;;;;;5027375;28;19925;-71
2023/07/14 10:07:24;;;;;;;;;;;24.90;99.90;;;;;;5031994;28;19933;-71
2023/07/14 10:09:59;;;;;;;;;;;24.80;99.90;;;;;;5023289;28;20970;-71
2023/07/14 10:12:25;;;;;;;;;;;24.70;99.90;;;;;;5031611;28;19936;-71
2023/07/14 10:14:53;;;;;;;;;;;24.70;99.90;;;;;;5031355;28;19936;-71
2023/07/14 10:17:26;;;;;;;;;;;24.80;99.90;;;;;;5031075;28;20188;-71
2023/07/14 10:19:52;;;;;;;;;;;24.70;99.90;;;;;;5031450;28;19929;-71
2023/07/14 10:22:18;;;;;;;;;;;24.60;99.90;;;;;;5012941;28;20391;-71
2023/07/14 10:24:45;;;;;;;;;;;24.70;99.90;;;;;;5031128;28;20426;-71
2023/07/14 10:27:19;;;;;;;;;;;25.00;99.90;;;;;;5031451;28;19987;-71
2023/07/14 10:29:46;;;;;;;;;;;25.10;99.90;;;;;;5030550;28;20007;-71
2023/07/14 10:32:24;;;;;;;;;;;25.20;99.90;;;;;;5031259;28;19932;-71
2023/07/14 10:34:50;;;;;;;;;;;25.30;99.90;;;;;;5031291;28;19925;-72
2023/07/14 10:37:21;;;;;;;;;;;25.50;99.90;;;;;;5031204;28;19929;-72
2023/07/14 10:39:50;;;;;;;;;;;25.80;99.90;;;;;;5030639;28;19932;-69
2023/07/14 10:42:17;;;;;;;;;;;25.90;99.90;;;;;;5029746;28;20003;-70
2023/07/14 10:44:44;;;;;;;;;;;26.00;99.90;;;;;;5031887;28;20000;-70
2023/07/14 10:47:15;;;;;;;;;;;26.10;99.90;;;;;;5021650;28;19992;-69
2023/07/14 10:49:43;;;;;;;;;;;26.20;99.90;;;;;;5031518;28;20486;-69
2023/07/14 10:52:17;;;;;;;;;;;26.40;99.90;;;;;;5031712;28;20007;-70
2023/07/14 10:54:43;;;;;;;;;;;26.60;99.90;;;;;;5031593;28;19975;-70
2023/07/14 10:57:11;;;;;;;;;;;26.80;99.90;;;;;;5031941;28;20373;-70
2023/07/14 10:59:42;;;;;;;;;;;26.90;99.90;;;;;;5031110;28;20453;-71
2023/07/14 11:02:11;;;;;;;;;;;26.80;99.90;;;;;;5031451;28;19925;-70
2023/07/14 11:04:45;;;;;;;;;;;26.80;99.90;;;;;;5021452;28;19957;-71
2023/07/14 11:07:31;;;;;;;;;;;27.00;99.90;;;;;;5031665;28;20357;-71
2023/07/14 11:10:00;;;;;;;;;;;27.10;99.90;;;;;;5030714;28;20378;-71
2023/07/14 11:12:33;;;;;;;;;;;27.20;99.90;;;;;;5031580;28;19925;-71
2023/07/14 11:15:11;;;;;;;;;;;27.20;99.90;;;;;;5031602;28;19964;-71
2023/07/14 11:17:59;;;;;;;;;;;27.20;99.90;;;;;;5031837;28;19929;-70
2023/07/14 11:20:29;;;;;;;;;;;27.10;99.90;;;;;;5020738;28;19925;-71
2023/07/14 11:22:58;;;;;;;;;;;26.90;99.90;;;;;;5013890;28;20013;-71
2023/07/14 11:25:23;;;;;;;;;;;27.00;99.90;;;;;;5015812;28;20402;-71
2023/07/14 11:27:50;;;;;;;;;;;27.30;99.90;;;;;;5031323;28;20016;-71
2023/07/14 11:30:18;;;;;;;;;;;27.50;99.90;;;;;;5030377;28;19964;-71
2023/07/14 11:32:52;;;;;;;;;;;27.80;99.90;;;;;;5030817;28;19932;-71
2023/07/14 11:35:18;;;;;;;;;;;28.00;99.90;;;;;;5031028;28;19925;-71
2023/07/14 11:37:46;;;;;;;;;;;27.90;99.90;;;;;;4995987;28;19932;-71
2023/07/14 11:40:20;;;;;;;;;;;27.70;99.90;;;;;;5013566;28;19929;-71
2023/07/14 11:42:48;;;;;;;;;;;27.40;99.90;;;;;;5029959;28;20386;-71
2023/07/14 11:45:19;;;;;;;;;;;27.20;99.90;;;;;;5030378;28;19928;-71
2023/07/14 11:47:45;;;;;;;;;;;27.10;99.90;;;;;;5011304;28;19925;-71
2023/07/14 11:50:17;;;;;;;;;;;27.00;99.90;;;;;;5029594;28;19991;-71
2023/07/14 11:52:57;;;;;;;;;;;26.80;99.90;;;;;;5027352;28;19934;-71
2023/07/14 11:55:23;;;;;;;;;;;26.70;99.90;;;;;;5029658;28;19925;-70
2023/07/14 11:57:50;;;;;;;;;;;26.60;99.90;;;;;;5027247;28;19979;-71
2023/07/14 12:00:17;;;;;;;;;;;26.70;99.90;;;;;;5028966;28;20391;-72
2023/07/14 12:02:42;;;;;;;;;;;27.10;99.90;;;;;;5025476;28;19933;-70
2023/07/14 12:05:14;;;;;;;;;;;27.30;99.90;;;;;;5027426;28;19925;-71
2023/07/14 12:07:58;;;;;;;;;;;27.40;99.90;;;;;;5024549;28;20067;-70
2023/07/14 12:10:56;;;;;;;;;;;27.70;99.90;;;;;;5015806;28;20454;-71
2023/07/14 12:13:25;;;;;;;;;;;28.00;99.90;;;;;;4991162;28;19933;-71
2023/07/14 12:15:54;;;;;;;;;;;28.20;99.90;;;;;;5028936;28;19925;-71
2023/07/14 12:18:22;;;;;;;;;;;28.30;99.90;;;;;;5028114;28;19956;-71
2023/07/14 12:20:48;;;;;;;;;;;28.20;99.90;;;;;;4992515;28;19949;-71
2023/07/14 12:23:19;;;;;;;;;;;27.90;99.90;;;;;;5009512;28;19929;-71
2023/07/14 12:25:49;;;;;;;;;;;27.50;99.90;;;;;;5017355;28;19925;-71
2023/07/14 12:28:18;;;;;;;;;;;27.20;99.90;;;;;;5014328;28;19933;-70
2023/07/14 12:30:49;;;;;;;;;;;26.80;99.90;;;;;;4993870;28;19925;-71
2023/07/14 12:33:21;;;;;;;;;;;26.60;99.90;;;;;;5013744;28;20147;-71
2023/07/14 12:35:48;;;;;;;;;;;26.50;99.90;;;;;;5027496;28;20299;-71
2023/07/14 12:38:23;;;;;;;;;;;26.40;99.90;;;;;;5024611;28;20044;-70
2023/07/14 12:40:50;;;;;;;;;;;26.30;99.90;;;;;;5016646;28;20322;-71
2023/07/14 12:43:32;;;;;;;;;;;26.40;99.90;;;;;;5013545;28;19987;-71
2023/07/14 12:45:59;;;;;;;;;;;26.80;99.90;;;;;;5013922;28;19929;-71
2023/07/14 12:48:30;;;;;;;;;;;27.10;99.90;;;;;;5017630;28;19932;-71
2023/07/14 12:50:57;;;;;;;;;;;27.20;99.90;;;;;;4994737;28;19975;-71
2023/07/14 12:53:22;;;;;;;;;;;27.00;99.90;;;;;;5010381;28;19933;-70
2023/07/14 12:55:48;;;;;;;;;;;26.80;99.90;;;;;;4992371;28;19933;-71
2023/07/14 12:58:19;;;;;;;;;;;26.70;99.90;;;;;;5018076;28;19972;-71
2023/07/14 13:00:45;;;;;;;;;;;26.70;99.90;;;;;;5014095;28;20383;-71
2023/07/14 13:03:11;;;;;;;;;;;26.60;99.90;;;;;;5019445;28;19932;-71
2023/07/14 13:05:38;;;;;;;;;;;26.50;99.90;;;;;;5008440;28;19972;-70
2023/07/14 13:08:04;;;;;;;;;;;26.30;99.90;;;;;;5018350;28;20771;-70
2023/07/14 13:10:38;;;;;;;;;;;26.10;99.90;;;;;;5012335;28;19926;-70
2023/07/14 13:13:05;;;;;;;;;;;26.00;99.90;;;;;;5010260;28;20357;-70
2023/07/14 13:15:33;;;;;;;;;;;25.90;99.90;;;;;;5008890;28;19925;-71
2023/07/14 13:18:03;;;;;;;;;;;25.90;99.90;;;;;;5017592;28;19976;-71
2023/07/14 13:20:35;;;;;;;;;;;25.90;99.90;;;;;;5010067;28;20003;-70
2023/07/14 13:23:04;;;;;;;;;;;25.90;99.90;;;;;;5016327;28;19925;-70
2023/07/14 13:25:29;;;;;;;;;;;26.00;99.90;;;;;;5026717;28;20375;-70
2023/07/14 13:27:55;;;;;;;;;;;26.10;99.90;;;;;;4997899;28;20076;-71
2023/07/14 13:30:29;;;;;;;;;;;26.20;99.90;;;;;;5026093;28;20189;-70
2023/07/14 13:32:55;;;;;;;;;;;26.10;99.90;;;;;;5026691;28;19988;-71
2023/07/14 13:35:24;;;;;;;;;;;26.10;99.90;;;;;;5021365;28;20407;-71
2023/07/14 13:38:00;;;;;;;;;;;26.00;99.90;;;;;;5021116;28;19925;-70
2023/07/14 13:40:31;;;;;;;;;;;25.90;99.90;;;;;;5018123;28;19967;-70
2023/07/14 13:43:01;;;;;;;;;;;25.80;99.90;;;;;;5012136;28;19984;-70
2023/07/14 13:45:32;;;;;;;;;;;25.70;99.90;;;;;;5009884;28;19925;-70
2023/07/14 13:47:58;;;;;;;;;;;25.60;99.70;;;;;;5012588;28;19925;-71
2023/07/14 13:50:23;;;;;;;;;;;25.60;99.90;;;;;;5017333;28;19932;-71
2023/07/14 13:52:49;;;;;;;;;;;25.60;99.90;;;;;;5020887;28;19972;-71
2023/07/14 13:55:14;;;;;;;;;;;25.80;99.90;;;;;;5008828;28;19925;-70
2023/07/14 13:57:40;;;;;;;;;;;25.70;99.90;;;;;;5019528;28;19926;-70
2023/07/14 14:00:08;;;;;;;;;;;25.60;99.90;;;;;;4991434;28;19936;-70
2023/07/14 14:02:38;;;;;;;;;;;25.60;99.90;;;;;;4991509;28;19979;-70
2023/07/14 14:05:11;;;;;;;;;;;25.50;99.90;;;;;;5018925;28;19926;-71
2023/07/14 14:07:36;;;;;;;;;;;25.40;99.10;;;;;;5019142;28;19925;-70
2023/07/14 14:10:05;;;;;;;;;;;25.20;99.70;;;;;;5009154;28;19929;-70
2023/07/14 14:12:30;;;;;;;;;;;25.10;99.90;;;;;;5009490;28;19932;-70
2023/07/14 14:14:55;;;;;;;;;;;25.00;99.90;;;;;;5022275;28;20299;-71
2023/07/14 14:17:24;;;;;;;;;;;24.90;99.60;;;;;;5012553;28;19949;-70
2023/07/14 14:19:50;;;;;;;;;;;25.00;99.90;;;;;;5024055;28;19925;-70
2023/07/14 14:22:16;;;;;;;;;;;25.00;99.90;;;;;;5029921;28;19936;-71
2023/07/14 14:24:41;;;;;;;;;;;25.00;99.90;;;;;;5030917;28;19929;-70
2023/07/14 14:27:07;;;;;;;;;;;25.10;99.90;;;;;;5028402;28;19933;-71